sensor_id;sensor_type;location;lat;lon;timestamp;temperature;humidity
20750;DHT22;10535;50.664;4.564;2022-11-14T00:01:56;4.10;99.90
20750;DHT22;10535;50.664;4.564;2022-11-14T00:04:22;4.20;99.90
20750;DHT22;10535;50.664;4.564;2022-11-14T00:06:47;4.00;99.90
20750;DHT22;10535;50.664;4.564;2022-11-14T00:09:13;3.80;99.90
20750;DHT22;10535;50.664;4.564;2022-11-14T00:11:39;3.90;99.90
20750;DHT22;10535;50.664;4.564;2022-11-14T00:14:04;4.10;99.90
20750;DHT22;10535;50.664;4.564;2022-11-14T00:16:30;4.00;99.90
20750;DHT22;10535;50.664;4.564;2022-11-14T00:18:56;4.00;99.90
20750;DHT22;10535;50.664;4.564;2022-11-14T00:21:21;4.20;99.90
20750;DHT22;10535;50.664;4.564;2022-11-14T00:23:47;4.20;99.90
20750;DHT22;10535;50.664;4.564;2022-11-14T00:26:13;4.20;99.90
20750;DHT22;10535;50.664;4.564;2022-11-14T00:28:38;4.20;99.90
20750;DHT22;10535;50.664;4.564;2022-11-14T00:31:04;4.20;99.90
20750;DHT22;10535;50.664;4.564;2022-11-14T00:33:30;4.10;99.90
20750;DHT22;10535;50.664;4.564;2022-11-14T00:35:56;4.10;99.90
20750;DHT22;10535;50.664;4.564;2022-11-14T00:38:22;4.10;99.90
20750;DHT22;10535;50.664;4.564;2022-11-14T00:40:48;4.30;99.90
20750;DHT22;10535;50.664;4.564;2022-11-14T00:43:13;4.10;99.90
20750;DHT22;10535;50.664;4.564;2022-11-14T00:45:42;4.30;99.90
20750;DHT22;10535;50.664;4.564;2022-11-14T00:48:08;4.30;99.90
20750;DHT22;10535;50.664;4.564;2022-11-14T00:50:34;4.10;99.90
20750;DHT22;10535;50.664;4.564;2022-11-14T00:52:59;4.00;99.90
20750;DHT22;10535;50.664;4.564;2022-11-14T00:55:25;3.80;99.90
20750;DHT22;10535;50.664;4.564;2022-11-14T00:57:51;3.70;99.90
20750;DHT22;10535;50.664;4.564;2022-11-14T01:00:16;3.70;99.90
20750;DHT22;10535;50.664;4.564;2022-11-14T01:02:42;3.70;99.90
20750;DHT22;10535;50.664;4.564;2022-11-14T01:05:07;3.80;99.90
20750;DHT22;10535;50.664;4.564;2022-11-14T01:07:33;4.00;99.90
20750;DHT22;10535;50.664;4.564;2022-11-14T01:09:59;4.00;99.90
20750;DHT22;10535;50.664;4.564;2022-11-14T01:12:24;3.80;99.90
20750;DHT22;10535;50.664;4.564;2022-11-14T01:14:50;3.70;99.90
20750;DHT22;10535;50.664;4.564;2022-11-14T01:17:15;3.70;99.90
20750;DHT22;10535;50.664;4.564;2022-11-14T01:19:41;3.90;99.90
20750;DHT22;10535;50.664;4.564;2022-11-14T01:22:07;3.90;99.90
20750;DHT22;10535;50.664;4.564;2022-11-14T01:24:33;3.80;99.90
20750;DHT22;10535;50.664;4.564;2022-11-14T01:26:59;3.70;99.90
20750;DHT22;10535;50.664;4.564;2022-11-14T01:29:24;3.50;99.90
20750;DHT22;10535;50.664;4.564;2022-11-14T01:31:50;3.50;99.90
20750;DHT22;10535;50.664;4.564;2022-11-14T01:34:16;3.50;99.90
20750;DHT22;10535;50.664;4.564;2022-11-14T01:36:41;3.50;99.90
20750;DHT22;10535;50.664;4.564;2022-11-14T01:39:07;3.50;99.90
20750;DHT22;10535;50.664;4.564;2022-11-14T01:41:32;3.40;99.90
20750;DHT22;10535;50.664;4.564;2022-11-14T01:43:58;3.30;99.90
20750;DHT22;10535;50.664;4.564;2022-11-14T01:46:36;3.60;99.90
20750;DHT22;10535;50.664;4.564;2022-11-14T01:51:30;3.60;99.90
20750;DHT22;10535;50.664;4.564;2022-11-14T01:54:00;3.60;99.90
20750;DHT22;10535;50.664;4.564;2022-11-14T01:56:36;3.60;99.90
20750;DHT22;10535;50.664;4.564;2022-11-14T01:59:06;3.60;99.90
20750;DHT22;10535;50.664;4.564;2022-11-14T02:01:35;3.50;99.90
20750;DHT22;10535;50.664;4.564;2022-11-14T02:04:04;3.50;99.90
20750;DHT22;10535;50.664;4.564;2022-11-14T02:06:32;3.70;99.90
20750;DHT22;10535;50.664;4.564;2022-11-14T02:09:04;3.40;99.90
20750;DHT22;10535;50.664;4.564;2022-11-14T02:11:34;3.40;99.90
20750;DHT22;10535;50.664;4.564;2022-11-14T02:14:00;3.40;99.90
20750;DHT22;10535;50.664;4.564;2022-11-14T02:16:26;3.40;99.90
20750;DHT22;10535;50.664;4.564;2022-11-14T02:18:52;3.50;99.90
20750;DHT22;10535;50.664;4.564;2022-11-14T02:21:18;3.30;99.90
20750;DHT22;10535;50.664;4.564;2022-11-14T02:23:44;3.50;99.90
20750;DHT22;10535;50.664;4.564;2022-11-14T02:26:09;3.30;99.90
20750;DHT22;10535;50.664;4.564;2022-11-14T02:28:35;3.30;99.90
20750;DHT22;10535;50.664;4.564;2022-11-14T02:31:01;3.40;99.90
20750;DHT22;10535;50.664;4.564;2022-11-14T02:33:26;3.40;99.90
20750;DHT22;10535;50.664;4.564;2022-11-14T02:35:52;3.30;99.90
20750;DHT22;10535;50.664;4.564;2022-11-14T02:38:18;3.30;99.90
20750;DHT22;10535;50.664;4.564;2022-11-14T02:40:43;3.20;99.90
20750;DHT22;10535;50.664;4.564;2022-11-14T02:43:09;3.40;99.90
20750;DHT22;10535;50.664;4.564;2022-11-14T02:45:35;3.30;99.90
20750;DHT22;10535;50.664;4.564;2022-11-14T02:48:00;3.20;99.90
20750;DHT22;10535;50.664;4.564;2022-11-14T02:50:27;3.20;99.90
20750;DHT22;10535;50.664;4.564;2022-11-14T02:52:52;3.50;99.90
20750;DHT22;10535;50.664;4.564;2022-11-14T02:55:19;3.50;99.90
20750;DHT22;10535;50.664;4.564;2022-11-14T02:57:45;3.50;99.90
20750;DHT22;10535;50.664;4.564;2022-11-14T03:00:11;3.40;99.90
20750;DHT22;10535;50.664;4.564;2022-11-14T03:02:37;3.10;99.90
20750;DHT22;10535;50.664;4.564;2022-11-14T03:05:03;3.00;99.90
20750;DHT22;10535;50.664;4.564;2022-11-14T03:07:28;2.90;99.90
20750;DHT22;10535;50.664;4.564;2022-11-14T03:09:54;3.00;99.90
20750;DHT22;10535;50.664;4.564;2022-11-14T03:12:20;2.80;99.90
20750;DHT22;10535;50.664;4.564;2022-11-14T03:14:45;2.60;99.90
20750;DHT22;10535;50.664;4.564;2022-11-14T03:17:11;2.60;99.90
20750;DHT22;10535;50.664;4.564;2022-11-14T03:19:37;2.70;99.90
20750;DHT22;10535;50.664;4.564;2022-11-14T03:22:03;2.50;99.90
20750;DHT22;10535;50.664;4.564;2022-11-14T03:24:28;2.70;99.90
20750;DHT22;10535;50.664;4.564;2022-11-14T03:26:54;2.50;99.90
20750;DHT22;10535;50.664;4.564;2022-11-14T03:29:19;2.60;99.90
20750;DHT22;10535;50.664;4.564;2022-11-14T03:31:45;2.60;99.90
20750;DHT22;10535;50.664;4.564;2022-11-14T03:34:11;2.70;99.90
20750;DHT22;10535;50.664;4.564;2022-11-14T03:36:37;2.50;99.90
20750;DHT22;10535;50.664;4.564;2022-11-14T03:39:03;2.50;99.90
20750;DHT22;10535;50.664;4.564;2022-11-14T03:41:29;2.50;99.90
20750;DHT22;10535;50.664;4.564;2022-11-14T03:43:54;2.40;99.90
20750;DHT22;10535;50.664;4.564;2022-11-14T03:46:20;2.60;99.90
20750;DHT22;10535;50.664;4.564;2022-11-14T03:48:46;2.40;99.90
20750;DHT22;10535;50.664;4.564;2022-11-14T03:51:13;2.70;99.90
20750;DHT22;10535;50.664;4.564;2022-11-14T03:53:38;2.50;99.90
20750;DHT22;10535;50.664;4.564;2022-11-14T03:56:04;2.50;99.90
20750;DHT22;10535;50.664;4.564;2022-11-14T03:58:29;2.50;99.90
20750;DHT22;10535;50.664;4.564;2022-11-14T04:00:56;2.50;99.90
20750;DHT22;10535;50.664;4.564;2022-11-14T04:03:23;2.50;99.90
20750;DHT22;10535;50.664;4.564;2022-11-14T04:05:49;2.50;99.90
20750;DHT22;10535;50.664;4.564;2022-11-14T04:08:14;2.40;99.90
20750;DHT22;10535;50.664;4.564;2022-11-14T04:10:40;2.40;99.90
20750;DHT22;10535;50.664;4.564;2022-11-14T04:13:06;2.50;99.90
20750;DHT22;10535;50.664;4.564;2022-11-14T04:15:32;2.40;99.90
20750;DHT22;10535;50.664;4.564;2022-11-14T04:17:57;2.50;99.90
20750;DHT22;10535;50.664;4.564;2022-11-14T04:20:23;2.50;99.90
20750;DHT22;10535;50.664;4.564;2022-11-14T04:22:49;2.50;99.90
20750;DHT22;10535;50.664;4.564;2022-11-14T04:25:14;2.60;99.90
20750;DHT22;10535;50.664;4.564;2022-11-14T04:27:40;2.40;99.90
20750;DHT22;10535;50.664;4.564;2022-11-14T04:30:06;2.40;99.90
20750;DHT22;10535;50.664;4.564;2022-11-14T04:32:32;2.50;99.90
20750;DHT22;10535;50.664;4.564;2022-11-14T04:34:57;2.50;99.90
20750;DHT22;10535;50.664;4.564;2022-11-14T04:37:23;2.40;99.90
20750;DHT22;10535;50.664;4.564;2022-11-14T04:39:49;2.60;99.90
20750;DHT22;10535;50.664;4.564;2022-11-14T04:42:14;2.30;99.90
20750;DHT22;10535;50.664;4.564;2022-11-14T04:44:40;2.20;99.90
20750;DHT22;10535;50.664;4.564;2022-11-14T04:47:06;2.10;99.90
20750;DHT22;10535;50.664;4.564;2022-11-14T04:49:31;2.10;99.90
20750;DHT22;10535;50.664;4.564;2022-11-14T04:51:57;2.30;99.90
20750;DHT22;10535;50.664;4.564;2022-11-14T04:54:23;2.30;99.90
20750;DHT22;10535;50.664;4.564;2022-11-14T04:56:48;2.30;99.90
20750;DHT22;10535;50.664;4.564;2022-11-14T04:59:14;2.10;99.90
20750;DHT22;10535;50.664;4.564;2022-11-14T05:01:39;2.10;99.90
20750;DHT22;10535;50.664;4.564;2022-11-14T05:04:05;2.30;99.90
20750;DHT22;10535;50.664;4.564;2022-11-14T05:06:31;2.20;99.90
20750;DHT22;10535;50.664;4.564;2022-11-14T05:08:56;2.20;99.90
20750;DHT22;10535;50.664;4.564;2022-11-14T05:11:22;2.20;99.90
20750;DHT22;10535;50.664;4.564;2022-11-14T05:13:48;2.40;99.90
20750;DHT22;10535;50.664;4.564;2022-11-14T05:16:13;2.30;99.90
20750;DHT22;10535;50.664;4.564;2022-11-14T05:18:39;2.30;99.90
20750;DHT22;10535;50.664;4.564;2022-11-14T05:21:09;2.50;99.90
20750;DHT22;10535;50.664;4.564;2022-11-14T05:23:35;2.40;99.90
20750;DHT22;10535;50.664;4.564;2022-11-14T05:26:05;2.50;99.90
20750;DHT22;10535;50.664;4.564;2022-11-14T05:28:33;2.40;99.90
20750;DHT22;10535;50.664;4.564;2022-11-14T05:31:26;2.40;99.90
20750;DHT22;10535;50.664;4.564;2022-11-14T05:33:53;2.50;99.90
20750;DHT22;10535;50.664;4.564;2022-11-14T05:36:23;2.40;99.90
20750;DHT22;10535;50.664;4.564;2022-11-14T05:38:53;2.30;99.90
20750;DHT22;10535;50.664;4.564;2022-11-14T05:41:57;2.00;99.90
20750;DHT22;10535;50.664;4.564;2022-11-14T05:44:31;1.90;99.90
20750;DHT22;10535;50.664;4.564;2022-11-14T05:47:03;2.00;99.90
20750;DHT22;10535;50.664;4.564;2022-11-14T05:49:33;2.00;99.90
20750;DHT22;10535;50.664;4.564;2022-11-14T05:52:10;1.80;99.90
20750;DHT22;10535;50.664;4.564;2022-11-14T05:54:36;1.80;99.90
20750;DHT22;10535;50.664;4.564;2022-11-14T05:57:05;1.80;99.90
20750;DHT22;10535;50.664;4.564;2022-11-14T05:59:36;1.90;99.90
20750;DHT22;10535;50.664;4.564;2022-11-14T06:02:04;1.80;99.90
20750;DHT22;10535;50.664;4.564;2022-11-14T06:04:34;2.00;99.90
20750;DHT22;10535;50.664;4.564;2022-11-14T06:07:04;1.70;99.90
20750;DHT22;10535;50.664;4.564;2022-11-14T06:09:46;1.60;99.90
20750;DHT22;10535;50.664;4.564;2022-11-14T06:12:12;1.70;99.90
20750;DHT22;10535;50.664;4.564;2022-11-14T06:14:39;1.80;99.90
20750;DHT22;10535;50.664;4.564;2022-11-14T06:17:45;1.80;99.90
20750;DHT22;10535;50.664;4.564;2022-11-14T06:20:11;1.80;99.90
20750;DHT22;10535;50.664;4.564;2022-11-14T06:22:47;1.90;99.90
20750;DHT22;10535;50.664;4.564;2022-11-14T06:25:14;1.90;99.90
20750;DHT22;10535;50.664;4.564;2022-11-14T06:27:49;1.70;99.90
20750;DHT22;10535;50.664;4.564;2022-11-14T06:30:15;1.80;99.90
20750;DHT22;10535;50.664;4.564;2022-11-14T06:32:40;1.70;99.90
20750;DHT22;10535;50.664;4.564;2022-11-14T06:35:07;1.80;99.90
20750;DHT22;10535;50.664;4.564;2022-11-14T06:37:35;1.50;99.90
20750;DHT22;10535;50.664;4.564;2022-11-14T06:40:05;1.80;99.90
20750;DHT22;10535;50.664;4.564;2022-11-14T06:42:32;1.60;99.90
20750;DHT22;10535;50.664;4.564;2022-11-14T06:45:08;1.60;99.90
20750;DHT22;10535;50.664;4.564;2022-11-14T06:50:19;1.50;99.90
20750;DHT22;10535;50.664;4.564;2022-11-14T06:52:48;1.50;99.90
20750;DHT22;10535;50.664;4.564;2022-11-14T06:55:14;1.70;99.90
20750;DHT22;10535;50.664;4.564;2022-11-14T06:57:39;1.50;99.90
20750;DHT22;10535;50.664;4.564;2022-11-14T07:00:12;1.50;99.90
20750;DHT22;10535;50.664;4.564;2022-11-14T07:02:42;1.50;99.90
20750;DHT22;10535;50.664;4.564;2022-11-14T07:15:31;1.80;99.90
20750;DHT22;10535;50.664;4.564;2022-11-14T07:18:07;1.70;99.90
20750;DHT22;10535;50.664;4.564;2022-11-14T07:20:33;2.00;99.90
20750;DHT22;10535;50.664;4.564;2022-11-14T07:23:04;1.70;99.90
20750;DHT22;10535;50.664;4.564;2022-11-14T07:25:30;1.90;99.90
20750;DHT22;10535;50.664;4.564;2022-11-14T07:27:59;2.10;99.90
20750;DHT22;10535;50.664;4.564;2022-11-14T07:30:27;2.00;99.90
20750;DHT22;10535;50.664;4.564;2022-11-14T07:33:04;2.10;99.90
20750;DHT22;10535;50.664;4.564;2022-11-14T07:35:41;2.00;99.90
20750;DHT22;10535;50.664;4.564;2022-11-14T07:38:11;2.20;99.90
20750;DHT22;10535;50.664;4.564;2022-11-14T07:40:40;2.20;99.90
20750;DHT22;10535;50.664;4.564;2022-11-14T07:43:07;2.40;99.90
20750;DHT22;10535;50.664;4.564;2022-11-14T07:45:34;2.60;99.90
20750;DHT22;10535;50.664;4.564;2022-11-14T07:48:20;2.60;99.90
20750;DHT22;10535;50.664;4.564;2022-11-14T07:50:46;2.90;99.90
20750;DHT22;10535;50.664;4.564;2022-11-14T07:53:18;2.70;99.90
20750;DHT22;10535;50.664;4.564;2022-11-14T07:55:48;2.90;99.90
20750;DHT22;10535;50.664;4.564;2022-11-14T07:58:20;2.90;99.90
20750;DHT22;10535;50.664;4.564;2022-11-14T08:03:38;3.00;99.90
20750;DHT22;10535;50.664;4.564;2022-11-14T08:06:06;3.10;99.90
20750;DHT22;10535;50.664;4.564;2022-11-14T08:08:38;3.10;99.90
20750;DHT22;10535;50.664;4.564;2022-11-14T08:11:49;3.30;99.90
20750;DHT22;10535;50.664;4.564;2022-11-14T08:17:23;3.50;99.90
20750;DHT22;10535;50.664;4.564;2022-11-14T08:23:03;3.60;99.90
20750;DHT22;10535;50.664;4.564;2022-11-14T08:26:04;3.80;99.90
20750;DHT22;10535;50.664;4.564;2022-11-14T08:50:40;4.90;99.90
20750;DHT22;10535;50.664;4.564;2022-11-14T08:53:57;5.00;99.90
20750;DHT22;10535;50.664;4.564;2022-11-14T08:56:44;5.20;99.90
20750;DHT22;10535;50.664;4.564;2022-11-14T08:59:27;5.50;99.90
20750;DHT22;10535;50.664;4.564;2022-11-14T09:02:13;5.50;99.90
20750;DHT22;10535;50.664;4.564;2022-11-14T09:04:39;5.70;99.90
20750;DHT22;10535;50.664;4.564;2022-11-14T09:07:06;5.70;99.90
20750;DHT22;10535;50.664;4.564;2022-11-14T09:09:38;5.70;99.90
20750;DHT22;10535;50.664;4.564;2022-11-14T09:12:06;5.70;99.90
20750;DHT22;10535;50.664;4.564;2022-11-14T09:14:32;5.90;99.90
20750;DHT22;10535;50.664;4.564;2022-11-14T09:27:44;6.20;99.90
20750;DHT22;10535;50.664;4.564;2022-11-14T09:31:07;6.30;99.90
20750;DHT22;10535;50.664;4.564;2022-11-14T09:34:07;6.40;99.90
20750;DHT22;10535;50.664;4.564;2022-11-14T09:36:32;6.40;99.90
20750;DHT22;10535;50.664;4.564;2022-11-14T09:38:58;6.30;99.90
20750;DHT22;10535;50.664;4.564;2022-11-14T09:46:45;6.40;99.90
20750;DHT22;10535;50.664;4.564;2022-11-14T09:49:43;6.50;99.90
20750;DHT22;10535;50.664;4.564;2022-11-14T09:54:56;6.70;99.90
20750;DHT22;10535;50.664;4.564;2022-11-14T09:57:24;6.50;99.90
20750;DHT22;10535;50.664;4.564;2022-11-14T09:59:50;6.50;99.90
20750;DHT22;10535;50.664;4.564;2022-11-14T10:02:40;6.60;99.90
20750;DHT22;10535;50.664;4.564;2022-11-14T10:10:47;6.40;99.90
20750;DHT22;10535;50.664;4.564;2022-11-14T10:21:44;5.90;99.90
20750;DHT22;10535;50.664;4.564;2022-11-14T10:27:12;5.70;99.90
20750;DHT22;10535;50.664;4.564;2022-11-14T10:35:24;6.00;99.90
20750;DHT22;10535;50.664;4.564;2022-11-14T10:40:39;6.10;99.90
20750;DHT22;10535;50.664;4.564;2022-11-14T10:43:33;6.20;99.90
20750;DHT22;10535;50.664;4.564;2022-11-14T10:46:20;6.50;99.90
20750;DHT22;10535;50.664;4.564;2022-11-14T10:48:49;6.50;99.90
20750;DHT22;10535;50.664;4.564;2022-11-14T10:51:21;6.50;99.90
20750;DHT22;10535;50.664;4.564;2022-11-14T10:53:57;6.50;99.90
20750;DHT22;10535;50.664;4.564;2022-11-14T10:56:24;6.40;99.90
20750;DHT22;10535;50.664;4.564;2022-11-14T10:58:50;6.40;99.90
20750;DHT22;10535;50.664;4.564;2022-11-14T11:01:36;6.40;99.90
20750;DHT22;10535;50.664;4.564;2022-11-14T11:04:25;6.50;99.90
20750;DHT22;10535;50.664;4.564;2022-11-14T11:06:54;6.60;99.90
20750;DHT22;10535;50.664;4.564;2022-11-14T11:09:24;6.50;99.90
20750;DHT22;10535;50.664;4.564;2022-11-14T11:12:15;6.60;99.90
20750;DHT22;10535;50.664;4.564;2022-11-14T11:14:42;6.70;99.90
20750;DHT22;10535;50.664;4.564;2022-11-14T11:19:42;6.80;99.90
20750;DHT22;10535;50.664;4.564;2022-11-14T11:22:29;6.80;99.90
20750;DHT22;10535;50.664;4.564;2022-11-14T11:24:55;6.70;99.90
20750;DHT22;10535;50.664;4.564;2022-11-14T11:27:27;6.90;99.90
20750;DHT22;10535;50.664;4.564;2022-11-14T11:30:16;7.00;99.90
20750;DHT22;10535;50.664;4.564;2022-11-14T11:32:45;6.80;99.90
20750;DHT22;10535;50.664;4.564;2022-11-14T11:35:15;6.70;99.90
20750;DHT22;10535;50.664;4.564;2022-11-14T11:37:53;6.80;99.90
20750;DHT22;10535;50.664;4.564;2022-11-14T11:40:29;6.70;99.90
20750;DHT22;10535;50.664;4.564;2022-11-14T11:45:22;6.60;99.90
20750;DHT22;10535;50.664;4.564;2022-11-14T11:48:08;6.70;99.90
20750;DHT22;10535;50.664;4.564;2022-11-14T11:50:38;6.80;99.90
20750;DHT22;10535;50.664;4.564;2022-11-14T11:53:20;6.80;99.90
20750;DHT22;10535;50.664;4.564;2022-11-14T11:55:50;7.10;99.90
20750;DHT22;10535;50.664;4.564;2022-11-14T11:58:37;7.30;99.90
20750;DHT22;10535;50.664;4.564;2022-11-14T12:01:09;7.50;99.90
20750;DHT22;10535;50.664;4.564;2022-11-14T12:03:35;7.50;99.90
20750;DHT22;10535;50.664;4.564;2022-11-14T12:06:10;7.40;99.90
20750;DHT22;10535;50.664;4.564;2022-11-14T12:11:32;7.30;99.90
20750;DHT22;10535;50.664;4.564;2022-11-14T12:17:52;7.60;99.90
20750;DHT22;10535;50.664;4.564;2022-11-14T12:21:02;7.70;99.90
20750;DHT22;10535;50.664;4.564;2022-11-14T12:29:14;8.00;99.90
20750;DHT22;10535;50.664;4.564;2022-11-14T12:31:43;8.00;99.90
20750;DHT22;10535;50.664;4.564;2022-11-14T12:34:38;8.20;99.90
20750;DHT22;10535;50.664;4.564;2022-11-14T12:37:27;8.20;99.90
20750;DHT22;10535;50.664;4.564;2022-11-14T12:40:04;8.20;99.90
20750;DHT22;10535;50.664;4.564;2022-11-14T12:42:30;8.40;99.90
20750;DHT22;10535;50.664;4.564;2022-11-14T12:44:57;8.50;99.90
20750;DHT22;10535;50.664;4.564;2022-11-14T12:47:24;8.50;99.90
20750;DHT22;10535;50.664;4.564;2022-11-14T13:09:01;7.90;99.90
20750;DHT22;10535;50.664;4.564;2022-11-14T13:14:20;8.30;99.90
20750;DHT22;10535;50.664;4.564;2022-11-14T13:17:25;8.30;99.90
20750;DHT22;10535;50.664;4.564;2022-11-14T13:20:29;8.20;99.90
20750;DHT22;10535;50.664;4.564;2022-11-14T13:33:49;8.00;99.90
20750;DHT22;10535;50.664;4.564;2022-11-14T13:39:25;7.90;99.90
20750;DHT22;10535;50.664;4.564;2022-11-14T13:42:20;8.10;99.90
20750;DHT22;10535;50.664;4.564;2022-11-14T13:48:46;8.40;99.90
20750;DHT22;10535;50.664;4.564;2022-11-14T13:51:18;8.30;99.90
20750;DHT22;10535;50.664;4.564;2022-11-14T13:53:45;8.20;99.90
20750;DHT22;10535;50.664;4.564;2022-11-14T13:59:28;8.20;99.90
20750;DHT22;10535;50.664;4.564;2022-11-14T14:05:02;8.00;99.90
20750;DHT22;10535;50.664;4.564;2022-11-14T14:10:23;8.10;99.90
20750;DHT22;10535;50.664;4.564;2022-11-14T14:12:59;8.10;99.90
20750;DHT22;10535;50.664;4.564;2022-11-14T14:15:42;8.20;99.90
20750;DHT22;10535;50.664;4.564;2022-11-14T14:24:04;8.20;99.90
20750;DHT22;10535;50.664;4.564;2022-11-14T14:26:59;8.20;99.90
20750;DHT22;10535;50.664;4.564;2022-11-14T14:29:57;8.20;99.90
20750;DHT22;10535;50.664;4.564;2022-11-14T14:35:33;8.30;99.90
20750;DHT22;10535;50.664;4.564;2022-11-14T14:38:26;8.30;99.90
20750;DHT22;10535;50.664;4.564;2022-11-14T14:40:55;8.10;99.90
20750;DHT22;10535;50.664;4.564;2022-11-14T14:43:32;8.30;99.90
20750;DHT22;10535;50.664;4.564;2022-11-14T14:45:58;8.30;99.90
20750;DHT22;10535;50.664;4.564;2022-11-14T14:48:27;8.30;99.90
20750;DHT22;10535;50.664;4.564;2022-11-14T14:50:55;8.40;99.90
20750;DHT22;10535;50.664;4.564;2022-11-14T14:53:50;8.50;99.90
20750;DHT22;10535;50.664;4.564;2022-11-14T14:56:18;8.40;99.90
20750;DHT22;10535;50.664;4.564;2022-11-14T14:58:44;8.20;99.90
20750;DHT22;10535;50.664;4.564;2022-11-14T15:01:19;8.20;99.90
20750;DHT22;10535;50.664;4.564;2022-11-14T15:04:04;8.30;99.90
20750;DHT22;10535;50.664;4.564;2022-11-14T15:06:36;8.30;99.90
20750;DHT22;10535;50.664;4.564;2022-11-14T15:09:17;8.10;99.90
20750;DHT22;10535;50.664;4.564;2022-11-14T15:11:46;8.00;99.90
20750;DHT22;10535;50.664;4.564;2022-11-14T15:14:15;8.10;99.90
20750;DHT22;10535;50.664;4.564;2022-11-14T15:16:43;8.20;99.90
20750;DHT22;10535;50.664;4.564;2022-11-14T15:19:14;8.30;99.90
20750;DHT22;10535;50.664;4.564;2022-11-14T15:21:55;8.40;99.90
20750;DHT22;10535;50.664;4.564;2022-11-14T15:24:22;8.50;99.90
20750;DHT22;10535;50.664;4.564;2022-11-14T15:26:49;8.50;99.90
20750;DHT22;10535;50.664;4.564;2022-11-14T15:29:20;8.20;99.90
20750;DHT22;10535;50.664;4.564;2022-11-14T15:31:49;8.20;99.90
20750;DHT22;10535;50.664;4.564;2022-11-14T15:39:35;8.10;99.90
20750;DHT22;10535;50.664;4.564;2022-11-14T15:44:52;8.40;99.90
20750;DHT22;10535;50.664;4.564;2022-11-14T15:47:26;8.40;99.90
20750;DHT22;10535;50.664;4.564;2022-11-14T15:52:47;8.30;99.90
20750;DHT22;10535;50.664;4.564;2022-11-14T15:55:27;8.20;99.90
20750;DHT22;10535;50.664;4.564;2022-11-14T15:57:57;8.20;99.90
20750;DHT22;10535;50.664;4.564;2022-11-14T16:00:26;8.20;99.90
20750;DHT22;10535;50.664;4.564;2022-11-14T16:03:16;8.20;99.90
20750;DHT22;10535;50.664;4.564;2022-11-14T16:05:52;8.20;99.90
20750;DHT22;10535;50.664;4.564;2022-11-14T16:08:18;8.10;99.90
20750;DHT22;10535;50.664;4.564;2022-11-14T16:10:44;8.20;99.90
20750;DHT22;10535;50.664;4.564;2022-11-14T16:13:09;8.10;99.90
20750;DHT22;10535;50.664;4.564;2022-11-14T16:15:35;8.10;99.90
20750;DHT22;10535;50.664;4.564;2022-11-14T16:18:03;8.10;99.90
20750;DHT22;10535;50.664;4.564;2022-11-14T16:20:29;8.10;99.90
20750;DHT22;10535;50.664;4.564;2022-11-14T16:22:58;8.10;99.90
20750;DHT22;10535;50.664;4.564;2022-11-14T16:25:29;8.30;99.90
20750;DHT22;10535;50.664;4.564;2022-11-14T16:28:21;8.30;99.90
20750;DHT22;10535;50.664;4.564;2022-11-14T16:30:59;8.30;99.90
20750;DHT22;10535;50.664;4.564;2022-11-14T16:33:28;8.20;99.90
20750;DHT22;10535;50.664;4.564;2022-11-14T16:36:03;8.20;99.90
20750;DHT22;10535;50.664;4.564;2022-11-14T16:38:29;8.10;99.90
20750;DHT22;10535;50.664;4.564;2022-11-14T16:40:55;8.20;99.90
20750;DHT22;10535;50.664;4.564;2022-11-14T16:43:24;8.20;99.90
20750;DHT22;10535;50.664;4.564;2022-11-14T16:45:53;8.20;99.90
20750;DHT22;10535;50.664;4.564;2022-11-14T16:48:28;8.00;99.90
20750;DHT22;10535;50.664;4.564;2022-11-14T16:50:54;8.00;99.90
20750;DHT22;10535;50.664;4.564;2022-11-14T16:53:21;8.10;99.90
20750;DHT22;10535;50.664;4.564;2022-11-14T16:56:19;8.20;99.90
20750;DHT22;10535;50.664;4.564;2022-11-14T17:02:22;8.10;99.90
20750;DHT22;10535;50.664;4.564;2022-11-14T17:07:40;8.20;99.90
20750;DHT22;10535;50.664;4.564;2022-11-14T17:10:08;8.20;99.90
20750;DHT22;10535;50.664;4.564;2022-11-14T17:12:34;8.30;99.90
20750;DHT22;10535;50.664;4.564;2022-11-14T17:15:12;8.10;99.90
20750;DHT22;10535;50.664;4.564;2022-11-14T17:17:38;8.40;99.90
20750;DHT22;10535;50.664;4.564;2022-11-14T17:20:19;8.30;99.90
20750;DHT22;10535;50.664;4.564;2022-11-14T17:22:45;8.30;99.90
20750;DHT22;10535;50.664;4.564;2022-11-14T17:25:11;8.30;99.90
20750;DHT22;10535;50.664;4.564;2022-11-14T17:27:37;8.40;99.90
20750;DHT22;10535;50.664;4.564;2022-11-14T17:30:03;8.30;99.90
20750;DHT22;10535;50.664;4.564;2022-11-14T17:32:32;8.30;99.90
20750;DHT22;10535;50.664;4.564;2022-11-14T17:34:58;8.30;99.90
20750;DHT22;10535;50.664;4.564;2022-11-14T17:37:24;8.20;99.90
20750;DHT22;10535;50.664;4.564;2022-11-14T17:39:49;8.40;99.90
20750;DHT22;10535;50.664;4.564;2022-11-14T17:42:21;8.50;99.90
20750;DHT22;10535;50.664;4.564;2022-11-14T17:44:48;8.30;99.90
20750;DHT22;10535;50.664;4.564;2022-11-14T17:47:14;8.40;99.90
20750;DHT22;10535;50.664;4.564;2022-11-14T17:49:42;8.40;99.90
20750;DHT22;10535;50.664;4.564;2022-11-14T17:52:09;8.30;99.90
20750;DHT22;10535;50.664;4.564;2022-11-14T17:54:36;8.50;99.90
20750;DHT22;10535;50.664;4.564;2022-11-14T17:59:55;8.30;99.90
20750;DHT22;10535;50.664;4.564;2022-11-14T18:02:26;8.40;99.90
20750;DHT22;10535;50.664;4.564;2022-11-14T18:04:56;8.50;99.90
20750;DHT22;10535;50.664;4.564;2022-11-14T18:07:25;8.40;99.90
20750;DHT22;10535;50.664;4.564;2022-11-14T18:10:01;8.40;99.90
20750;DHT22;10535;50.664;4.564;2022-11-14T18:12:47;8.50;99.90
20750;DHT22;10535;50.664;4.564;2022-11-14T18:15:14;8.30;99.90
20750;DHT22;10535;50.664;4.564;2022-11-14T18:28:41;8.40;99.90
20750;DHT22;10535;50.664;4.564;2022-11-14T18:34:26;8.40;99.90
20750;DHT22;10535;50.664;4.564;2022-11-14T18:42:19;8.50;99.90
20750;DHT22;10535;50.664;4.564;2022-11-14T18:44:45;8.60;99.90
20750;DHT22;10535;50.664;4.564;2022-11-14T18:47:11;8.60;99.90
20750;DHT22;10535;50.664;4.564;2022-11-14T18:49:37;8.60;99.90
20750;DHT22;10535;50.664;4.564;2022-11-14T18:52:02;8.70;99.90
20750;DHT22;10535;50.664;4.564;2022-11-14T18:54:28;8.70;99.90
20750;DHT22;10535;50.664;4.564;2022-11-14T18:56:55;8.90;99.90
20750;DHT22;10535;50.664;4.564;2022-11-14T18:59:23;8.90;99.90
20750;DHT22;10535;50.664;4.564;2022-11-14T19:01:50;9.00;99.90
20750;DHT22;10535;50.664;4.564;2022-11-14T19:04:17;9.00;99.90
20750;DHT22;10535;50.664;4.564;2022-11-14T19:06:44;9.10;99.90
20750;DHT22;10535;50.664;4.564;2022-11-14T19:09:12;9.00;99.90
20750;DHT22;10535;50.664;4.564;2022-11-14T19:11:41;9.20;99.90
20750;DHT22;10535;50.664;4.564;2022-11-14T19:14:26;9.20;99.90
20750;DHT22;10535;50.664;4.564;2022-11-14T19:16:52;9.40;99.90
20750;DHT22;10535;50.664;4.564;2022-11-14T19:19:18;9.30;99.90
20750;DHT22;10535;50.664;4.564;2022-11-14T19:21:47;9.20;99.90
20750;DHT22;10535;50.664;4.564;2022-11-14T19:24:14;9.40;99.90
20750;DHT22;10535;50.664;4.564;2022-11-14T19:26:41;9.50;99.90
20750;DHT22;10535;50.664;4.564;2022-11-14T19:29:08;9.80;99.90
20750;DHT22;10535;50.664;4.564;2022-11-14T19:31:38;9.60;99.90
20750;DHT22;10535;50.664;4.564;2022-11-14T19:34:07;9.80;99.90